Time;durP1;ratioP1;P1;durP2;ratioP2;P2;SDS_P1;SDS_P2;PMS_P1;PMS_P2;Temp;Humidity;BMP_temperature;BMP_pressure;BME280_temperature;BME280_humidity;BME280_pressure;Samples;Min_cycle;Max_cycle;Signal;HPM_P1;HPM_P2
2022/04/08 00:02:05;;;;;;;0.40;0.40;;;6.20;99.90;;;;;;5064947;28;21053;-88
2022/04/08 00:04:32;;;;;;;0.30;0.30;;;6.10;99.90;;;;;;5063774;28;20259;-88
2022/04/08 00:06:59;;;;;;;0.20;0.20;;;6.10;99.90;;;;;;5081167;28;20281;-86
2022/04/08 00:09:25;;;;;;;0.20;0.20;;;5.80;99.90;;;;;;5080136;28;20216;-87
2022/04/08 00:11:50;;;;;;;0.23;0.23;;;5.80;99.90;;;;;;5046841;28;20232;-88
2022/04/08 00:14:18;;;;;;;0.10;0.10;;;5.80;99.90;;;;;;5047346;28;20201;-86
2022/04/08 00:16:45;;;;;;;0.20;0.20;;;5.90;99.90;;;;;;5045915;28;20870;-88
2022/04/08 00:19:11;;;;;;;0.50;0.50;;;5.90;99.90;;;;;;5079726;28;20294;-85
2022/04/08 00:21:37;;;;;;;0.30;0.30;;;5.80;99.90;;;;;;5046753;28;20217;-89
2022/04/08 00:24:03;;;;;;;0.17;0.17;;;5.70;99.90;;;;;;5046510;28;20225;-88
2022/04/08 00:26:29;;;;;;;0.20;0.20;;;5.70;99.90;;;;;;5049097;28;20209;-88
2022/04/08 00:28:55;;;;;;;0.13;0.13;;;5.70;99.90;;;;;;5068006;28;20729;-86
2022/04/08 00:31:22;;;;;;;0.50;0.50;;;5.60;99.90;;;;;;5068449;28;20300;-87
2022/04/08 00:33:48;;;;;;;0.43;0.43;;;5.70;99.90;;;;;;5083841;28;20677;-88
2022/04/08 00:36:14;;;;;;;0.27;0.27;;;5.80;99.90;;;;;;5068571;28;20315;-86
2022/04/08 00:38:39;;;;;;;8.63;0.60;;;5.90;99.90;;;;;;5066693;28;21005;-86
2022/04/08 00:41:05;;;;;;;0.90;0.87;;;6.00;99.90;;;;;;5067977;28;20663;-86
2022/04/08 00:43:40;;;;;;;0.30;0.30;;;6.00;99.90;;;;;;5083355;28;20275;-86
2022/04/08 00:46:08;;;;;;;0.57;0.57;;;5.90;99.90;;;;;;5066452;28;20232;-86
2022/04/08 00:48:34;;;;;;;15.57;1.37;;;5.90;99.90;;;;;;5066443;28;20247;-87
2022/04/08 00:51:00;;;;;;;0.30;0.30;;;6.00;99.90;;;;;;5067682;28;20221;-86
2022/04/08 00:53:28;;;;;;;0.20;0.20;;;6.10;99.90;;;;;;5050587;28;20193;-86
2022/04/08 00:55:54;;;;;;;0.30;0.30;;;6.20;99.90;;;;;;5068046;28;20262;-86
2022/04/08 00:58:20;;;;;;;0.20;0.20;;;6.20;99.90;;;;;;5058498;28;20312;-88
2022/04/08 01:00:46;;;;;;;0.30;0.30;;;6.10;99.90;;;;;;5067024;28;20256;-87
2022/04/08 01:03:12;;;;;;;2.40;0.80;;;6.10;99.90;;;;;;5049715;28;20233;-87
2022/04/08 01:05:38;;;;;;;2.13;0.50;;;6.00;99.90;;;;;;5066471;28;20249;-86
2022/04/08 01:08:04;;;;;;;0.30;0.30;;;6.10;99.90;;;;;;5056935;28;20204;-87
2022/04/08 01:10:30;;;;;;;9.40;0.60;;;6.10;99.90;;;;;;5081427;28;20301;-87
2022/04/08 01:12:56;;;;;;;0.30;0.30;;;6.20;99.90;;;;;;5049196;28;20332;-88
2022/04/08 01:15:23;;;;;;;0.53;0.50;;;6.10;99.90;;;;;;5049574;28;20569;-87
2022/04/08 01:17:49;;;;;;;0.50;0.30;;;6.10;99.90;;;;;;5076622;28;20225;-88
2022/04/08 01:20:16;;;;;;;0.50;0.50;;;6.20;99.90;;;;;;5084097;28;20193;-87
2022/04/08 01:22:43;;;;;;;0.30;0.30;;;6.20;99.90;;;;;;5066223;28;20303;-87
2022/04/08 01:25:10;;;;;;;0.47;0.47;;;6.20;99.90;;;;;;5048634;28;20224;-87
2022/04/08 01:27:37;;;;;;;0.20;0.20;;;6.20;99.90;;;;;;5082504;28;20314;-88
2022/04/08 01:30:06;;;;;;;0.33;0.17;;;6.20;99.90;;;;;;5049524;28;20240;-88
2022/04/08 01:32:31;;;;;;;0.30;0.30;;;6.30;99.90;;;;;;5082479;28;20177;-87
2022/04/08 01:34:57;;;;;;;4.50;1.00;;;6.40;99.90;;;;;;5065754;28;20714;-87
2022/04/08 01:37:23;;;;;;;1.60;1.37;;;6.50;99.90;;;;;;5047328;28;20221;-87
2022/04/08 01:39:49;;;;;;;0.20;0.20;;;6.60;99.90;;;;;;5045903;28;20576;-85
2022/04/08 01:42:16;;;;;;;0.30;0.30;;;6.60;99.90;;;;;;5065338;28;20275;-86
2022/04/08 01:44:41;;;;;;;0.20;0.20;;;6.30;99.90;;;;;;5063941;28;20200;-85
2022/04/08 01:47:07;;;;;;;0.60;0.60;;;6.20;99.90;;;;;;5059681;28;20217;-86
2022/04/08 01:49:33;;;;;;;0.57;0.57;;;6.30;99.90;;;;;;5048234;28;20745;-88
2022/04/08 01:51:59;;;;;;;16.83;2.20;;;6.40;99.90;;;;;;5049436;28;20271;-86
2022/04/08 01:54:25;;;;;;;0.23;0.23;;;6.30;99.90;;;;;;5048248;28;20225;-86
2022/04/08 01:56:50;;;;;;;0.83;0.80;;;6.40;99.90;;;;;;5082852;28;20270;-88
2022/04/08 01:59:16;;;;;;;9.00;0.63;;;6.40;99.90;;;;;;5081555;28;20193;-87
2022/04/08 02:01:42;;;;;;;0.23;0.23;;;6.50;99.90;;;;;;5066219;28;20298;-86
2022/04/08 02:04:08;;;;;;;0.20;0.20;;;6.50;99.90;;;;;;5047698;28;20245;-85
2022/04/08 02:06:36;;;;;;;1.73;0.43;;;6.50;99.90;;;;;;5063598;28;20233;-86
2022/04/08 02:09:03;;;;;;;0.20;0.20;;;6.30;99.90;;;;;;5037731;28;20224;-87
2022/04/08 02:11:28;;;;;;;0.50;0.50;;;6.20;99.90;;;;;;5081906;28;20681;-87
2022/04/08 02:13:54;;;;;;;3.83;0.70;;;6.10;99.90;;;;;;5065683;28;20219;-87
2022/04/08 02:16:20;;;;;;;0.20;0.20;;;6.00;99.90;;;;;;5048764;28;20235;-87
2022/04/08 02:18:45;;;;;;;0.33;0.33;;;5.90;99.90;;;;;;5066139;28;20225;-85
2022/04/08 02:21:12;;;;;;;0.30;0.30;;;6.00;99.90;;;;;;5048238;28;21051;-87
2022/04/08 02:23:38;;;;;;;0.27;0.27;;;6.00;99.90;;;;;;5064923;28;20189;-87
2022/04/08 02:26:05;;;;;;;0.40;0.40;;;6.00;99.90;;;;;;5065905;28;20221;-87
2022/04/08 02:28:33;;;;;;;0.30;0.30;;;5.90;99.90;;;;;;5047596;28;20564;-87
2022/04/08 02:30:59;;;;;;;0.30;0.30;;;5.90;99.90;;;;;;5081477;28;20217;-87
2022/04/08 02:33:25;;;;;;;0.67;0.63;;;5.90;99.90;;;;;;5048690;28;20269;-87
2022/04/08 02:35:50;;;;;;;0.67;0.67;;;6.00;99.90;;;;;;5065058;28;20274;-87
2022/04/08 02:38:16;;;;;;;0.30;0.30;;;6.00;99.90;;;;;;5066108;28;20193;-87
2022/04/08 02:40:42;;;;;;;0.43;0.43;;;6.10;99.90;;;;;;5081570;28;20218;-87
2022/04/08 02:43:08;;;;;;;0.50;0.50;;;6.00;99.90;;;;;;5064713;28;20744;-86
2022/04/08 02:45:34;;;;;;;0.40;0.40;;;6.00;99.90;;;;;;5064222;28;20282;-86
2022/04/08 02:47:59;;;;;;;0.63;0.50;;;5.90;99.90;;;;;;5047020;28;20233;-88
2022/04/08 02:50:25;;;;;;;0.37;0.37;;;5.70;99.90;;;;;;5047652;28;20240;-86
2022/04/08 02:52:51;;;;;;;2.37;0.40;;;5.90;99.90;;;;;;5081378;28;20225;-84
2022/04/08 02:55:16;;;;;;;0.30;0.30;;;6.00;99.90;;;;;;5064761;28;20222;-85
2022/04/08 02:57:46;;;;;;;0.43;0.43;;;6.00;99.90;;;;;;5063824;28;20308;-88
2022/04/08 03:00:16;;;;;;;0.20;0.20;;;6.00;99.90;;;;;;5063419;28;20245;-86
2022/04/08 03:02:43;;;;;;;1.43;0.93;;;6.00;99.90;;;;;;5063932;28;20212;-87
2022/04/08 03:05:09;;;;;;;3.80;2.27;;;6.00;99.90;;;;;;5037714;28;20235;-87
2022/04/08 03:07:35;;;;;;;1.17;1.17;;;6.10;99.90;;;;;;5017919;28;20636;-86
2022/04/08 03:10:04;;;;;;;0.67;0.67;;;6.20;99.90;;;;;;5032316;28;20267;-87
2022/04/08 03:12:31;;;;;;;0.20;0.20;;;6.20;99.90;;;;;;5018897;28;20234;-86
2022/04/08 03:14:57;;;;;;;1.17;1.17;;;5.90;99.90;;;;;;5035851;28;20214;-86
2022/04/08 03:17:23;;;;;;;0.30;0.30;;;5.60;99.90;;;;;;5019544;28;20217;-86
2022/04/08 03:19:49;;;;;;;0.70;0.70;;;5.40;99.90;;;;;;5034744;28;20248;-86
2022/04/08 03:22:19;;;;;;;0.53;0.53;;;5.30;99.90;;;;;;5034553;28;20229;-86
2022/04/08 03:24:46;;;;;;;0.40;0.40;;;5.20;99.90;;;;;;5034610;28;20269;-87
2022/04/08 03:27:12;;;;;;;0.23;0.23;;;5.20;99.90;;;;;;5019389;28;20242;-87
2022/04/08 03:29:37;;;;;;;0.67;0.60;;;5.20;99.90;;;;;;5031042;28;20873;-87
2022/04/08 03:32:04;;;;;;;0.40;0.40;;;5.30;99.90;;;;;;5030480;28;20653;-86
2022/04/08 03:34:29;;;;;;;0.40;0.40;;;5.30;99.90;;;;;;5008710;28;20226;-88
2022/04/08 03:36:55;;;;;;;0.60;0.50;;;5.40;99.90;;;;;;5032612;28;21017;-88
2022/04/08 03:39:22;;;;;;;3.73;1.90;;;5.40;99.90;;;;;;5033365;28;20224;-86
2022/04/08 03:41:48;;;;;;;0.30;0.30;;;5.50;99.90;;;;;;5032052;28;20230;-87
2022/04/08 03:44:14;;;;;;;0.43;0.43;;;5.50;99.90;;;;;;5034579;28;20250;-87
2022/04/08 03:46:41;;;;;;;0.37;0.37;;;5.50;99.90;;;;;;5037255;28;20229;-87
2022/04/08 03:49:14;;;;;;;0.40;0.40;;;5.50;99.90;;;;;;5034586;28;20227;-89
2022/04/08 03:51:49;;;;;;;0.40;0.40;;;5.60;99.90;;;;;;5034917;28;20214;-85
2022/04/08 03:54:14;;;;;;;3.83;2.50;;;5.60;99.90;;;;;;5032174;28;20233;-86
2022/04/08 03:56:43;;;;;;;0.30;0.30;;;5.50;99.90;;;;;;5015353;28;20204;-87
2022/04/08 03:59:10;;;;;;;0.67;0.67;;;5.40;99.90;;;;;;5036081;28;20272;-86
2022/04/08 04:01:36;;;;;;;1.60;0.80;;;5.30;99.90;;;;;;5040259;28;20221;-87
2022/04/08 04:04:03;;;;;;;0.50;0.50;;;5.30;99.90;;;;;;5043243;28;20245;-86
2022/04/08 04:06:30;;;;;;;2.47;0.77;;;5.20;99.90;;;;;;5083218;28;20274;-87
2022/04/08 04:08:56;;;;;;;0.93;0.57;;;5.10;99.90;;;;;;5067404;28;20217;-87
2022/04/08 04:11:22;;;;;;;0.40;0.40;;;4.80;99.90;;;;;;5050475;28;20227;-87
2022/04/08 04:13:48;;;;;;;0.37;0.37;;;4.70;99.90;;;;;;5033873;28;20751;-86
2022/04/08 04:16:14;;;;;;;2.87;0.50;;;4.70;99.90;;;;;;5051006;28;20217;-86
2022/04/08 04:18:39;;;;;;;0.40;0.40;;;4.60;99.90;;;;;;5066881;28;20754;-87
2022/04/08 04:21:05;;;;;;;1.07;1.07;;;4.70;99.90;;;;;;5068905;28;20697;-88
2022/04/08 04:23:33;;;;;;;0.30;0.30;;;4.70;99.90;;;;;;5068887;28;21040;-88
2022/04/08 04:26:03;;;;;;;1.60;1.50;;;4.80;99.90;;;;;;5068166;28;20185;-87
2022/04/08 04:28:30;;;;;;;0.30;0.30;;;4.80;99.90;;;;;;5084235;28;20221;-86
2022/04/08 04:30:56;;;;;;;0.40;0.40;;;4.80;99.90;;;;;;5067440;28;20221;-87
2022/04/08 04:33:22;;;;;;;1.03;0.50;;;4.90;99.90;;;;;;5084066;28;20278;-86
2022/04/08 04:35:48;;;;;;;0.37;0.37;;;4.90;99.90;;;;;;5067536;28;20910;-87
2022/04/08 04:38:14;;;;;;;0.30;0.30;;;4.90;99.90;;;;;;5067982;28;20288;-87
2022/04/08 04:40:39;;;;;;;0.40;0.40;;;4.90;99.90;;;;;;5050373;28;20335;-87
2022/04/08 04:43:05;;;;;;;0.40;0.40;;;4.90;99.90;;;;;;5050634;28;20598;-87
2022/04/08 04:45:31;;;;;;;0.50;0.50;;;4.90;99.90;;;;;;5050624;28;20931;-87
2022/04/08 04:47:57;;;;;;;0.80;0.80;;;5.00;99.90;;;;;;5050929;28;20228;-87
2022/04/08 04:50:23;;;;;;;0.40;0.40;;;5.00;99.90;;;;;;5069185;28;20588;-87
2022/04/08 04:52:48;;;;;;;1.10;0.57;;;5.00;99.90;;;;;;5066860;28;20227;-88
2022/04/08 04:55:14;;;;;;;0.30;0.30;;;5.00;99.90;;;;;;5067018;28;20312;-87
2022/04/08 04:57:40;;;;;;;3.20;0.77;;;5.20;99.90;;;;;;5049785;28;20302;-88
2022/04/08 05:00:09;;;;;;;0.53;0.50;;;5.30;99.90;;;;;;5083943;28;20221;-88
2022/04/08 05:02:35;;;;;;;0.30;0.30;;;5.40;99.90;;;;;;5066779;28;20224;-88
2022/04/08 05:05:02;;;;;;;0.83;0.83;;;5.40;99.90;;;;;;5083930;28;20241;-88
2022/04/08 05:07:27;;;;;;;0.27;0.27;;;5.40;99.90;;;;;;5083415;28;20290;-89
2022/04/08 05:09:53;;;;;;;0.30;0.30;;;5.50;99.90;;;;;;5048589;28;20225;-86
2022/04/08 05:12:19;;;;;;;0.50;0.50;;;5.50;99.90;;;;;;5080603;28;20315;-87
2022/04/08 05:14:45;;;;;;;0.40;0.40;;;5.60;99.90;;;;;;5047551;28;20193;-88
2022/04/08 05:17:10;;;;;;;0.40;0.40;;;5.70;99.90;;;;;;5050395;28;20711;-87
2022/04/08 05:19:36;;;;;;;0.37;0.37;;;5.80;99.90;;;;;;5067432;28;20221;-86
2022/04/08 05:22:02;;;;;;;0.20;0.20;;;6.00;99.90;;;;;;5080690;28;20225;-87
2022/04/08 05:24:27;;;;;;;0.30;0.30;;;6.10;99.90;;;;;;5063392;28;20332;-88
2022/04/08 05:26:53;;;;;;;0.40;0.40;;;6.20;99.90;;;;;;5065281;28;20703;-87
2022/04/08 05:29:20;;;;;;;0.40;0.40;;;6.30;99.90;;;;;;5081866;28;20204;-86
2022/04/08 05:31:47;;;;;;;0.83;0.80;;;6.50;99.90;;;;;;5049605;28;20217;-88
2022/04/08 05:34:13;;;;;;;1.20;1.20;;;6.70;99.90;;;;;;5049161;28;20221;-86
2022/04/08 05:36:39;;;;;;;3.40;0.67;;;6.80;99.90;;;;;;5048554;28;20637;-87
2022/04/08 05:39:04;;;;;;;0.40;0.40;;;7.00;99.90;;;;;;5066218;28;20236;-88
2022/04/08 05:41:30;;;;;;;0.67;0.67;;;7.10;99.90;;;;;;5082767;28;20634;-88
2022/04/08 05:43:56;;;;;;;1.53;1.33;;;6.90;99.90;;;;;;5068269;28;20193;-90
2022/04/08 05:46:21;;;;;;;0.60;0.60;;;6.80;99.90;;;;;;5083187;28;20229;-87
2022/04/08 05:48:47;;;;;;;0.40;0.40;;;7.10;99.90;;;;;;5065913;28;21036;-88
2022/04/08 05:51:13;;;;;;;1.70;1.17;;;7.10;99.90;;;;;;5064738;28;20224;-89
2022/04/08 05:53:39;;;;;;;0.60;0.60;;;7.70;99.90;;;;;;5062806;28;20189;-89
2022/04/08 05:56:05;;;;;;;4.20;0.83;;;8.30;99.90;;;;;;5050458;28;20251;-88
2022/04/08 05:58:31;;;;;;;0.50;0.50;;;9.40;99.90;;;;;;5057371;28;20800;-88
2022/04/08 06:00:57;;;;;;;7.43;0.50;;;9.90;99.90;;;;;;5082622;28;20221;-89
2022/04/08 06:03:22;;;;;;;4.23;0.43;;;10.10;99.90;;;;;;5048854;28;20215;-91
2022/04/08 06:05:48;;;;;;;0.50;0.50;;;10.60;99.90;;;;;;5080353;28;20615;-91
2022/04/08 06:08:14;;;;;;;0.87;0.87;;;11.20;99.90;;;;;;5065968;28;20709;-92
2022/04/08 06:10:40;;;;;;;1.70;0.93;;;11.20;99.90;;;;;;5049515;28;20286;-92
2022/04/08 06:13:06;;;;;;;0.90;0.90;;;11.50;99.90;;;;;;5049561;28;20217;-93
2022/04/08 06:15:31;;;;;;;0.60;0.60;;;10.50;99.90;;;;;;5066818;28;20287;-91
2022/04/08 06:17:58;;;;;;;1.03;0.93;;;9.10;99.90;;;;;;5048802;28;20220;-91
2022/04/08 06:20:24;;;;;;;3.90;0.60;;;8.10;99.90;;;;;;5049920;28;20189;-91
2022/04/08 06:22:51;;;;;;;0.30;0.30;;;8.60;99.90;;;;;;5040673;28;20225;-92
2022/04/08 06:25:19;;;;;;;12.83;0.83;;;9.90;99.90;;;;;;5064077;28;20634;-89
2022/04/08 06:27:45;;;;;;;4.47;0.97;;;10.80;99.90;;;;;;5063351;28;20239;-88
2022/04/08 06:30:14;;;;;;;0.30;0.30;;;10.30;99.90;;;;;;5080736;28;20321;-90
2022/04/08 06:32:41;;;;;;;0.90;0.90;;;9.80;99.90;;;;;;5065459;28;20201;-88
2022/04/08 06:35:07;;;;;;;0.60;0.20;;;9.10;99.90;;;;;;5047759;28;20258;-89
2022/04/08 06:37:33;;;;;;;0.20;0.20;;;7.80;99.90;;;;;;5064639;28;20316;-88
2022/04/08 06:40:09;;;;;;;0.23;0.23;;;6.90;99.90;;;;;;5063496;28;20248;-84
2022/04/08 06:42:36;;;;;;;0.30;0.30;;;6.60;99.90;;;;;;5064881;28;20312;-88
2022/04/08 06:45:04;;;;;;;0.90;0.83;;;6.30;99.90;;;;;;5065041;28;20240;-86
2022/04/08 06:47:29;;;;;;;0.60;0.60;;;6.20;99.90;;;;;;5046378;28;20205;-90
2022/04/08 06:49:55;;;;;;;0.70;0.70;;;6.20;99.90;;;;;;5047361;28;20197;-89
2022/04/08 06:52:21;;;;;;;3.50;0.73;;;6.20;99.90;;;;;;5066136;28;20684;-90
2022/04/08 06:54:47;;;;;;;0.43;0.43;;;6.20;99.90;;;;;;5081557;28;20201;-85
2022/04/08 06:57:12;;;;;;;1.20;0.97;;;6.40;99.90;;;;;;5048047;28;20696;-88
2022/04/08 06:59:40;;;;;;;0.40;0.40;;;7.90;99.90;;;;;;5081349;28;20215;-91
2022/04/08 07:02:07;;;;;;;0.83;0.47;;;10.00;99.90;;;;;;5066414;28;20200;-89
2022/04/08 07:04:33;;;;;;;1.10;0.50;;;12.60;99.90;;;;;;5066384;28;20237;-89
2022/04/08 07:06:59;;;;;;;2.50;0.90;;;13.70;99.90;;;;;;5064566;28;20225;-89
2022/04/08 07:09:25;;;;;;;1.80;0.43;;;12.30;99.90;;;;;;5066766;28;20229;-89
2022/04/08 07:11:50;;;;;;;0.47;0.47;;;12.90;99.90;;;;;;5081883;28;20843;-88
2022/04/08 07:14:16;;;;;;;2.40;1.13;;;14.40;99.90;;;;;;5048840;28;20685;-89
2022/04/08 07:16:43;;;;;;;0.83;0.67;;;16.10;99.90;;;;;;5064432;28;20241;-88
2022/04/08 07:19:12;;;;;;;2.30;0.60;;;17.10;99.90;;;;;;5047723;28;21589;-88
2022/04/08 07:21:37;;;;;;;0.57;0.57;;;16.80;99.90;;;;;;5048391;28;20219;-88
2022/04/08 07:24:04;;;;;;;0.97;0.50;;;17.30;99.90;;;;;;5080815;28;20677;-89
2022/04/08 07:26:29;;;;;;;2.50;0.83;;;13.90;99.90;;;;;;5080771;28;20221;-88
2022/04/08 07:28:55;;;;;;;1.83;0.57;;;13.50;99.90;;;;;;5047791;28;20693;-88
2022/04/08 07:31:21;;;;;;;3.00;0.60;;;12.30;99.90;;;;;;5046454;28;20677;-87
2022/04/08 07:33:47;;;;;;;6.20;0.67;;;12.50;99.90;;;;;;5046830;28;20270;-88
2022/04/08 07:36:13;;;;;;;0.90;0.90;;;13.10;99.90;;;;;;5046720;28;20225;-88
2022/04/08 07:38:39;;;;;;;1.60;0.40;;;12.30;99.90;;;;;;5064538;28;20189;-89
2022/04/08 07:41:05;;;;;;;0.53;0.53;;;12.30;99.90;;;;;;5065192;28;20220;-88
2022/04/08 07:43:31;;;;;;;0.50;0.50;;;11.90;99.90;;;;;;5081194;28;20251;-89
2022/04/08 07:45:57;;;;;;;0.40;0.40;;;12.10;99.90;;;;;;5063719;28;20224;-89
2022/04/08 07:48:22;;;;;;;3.90;0.60;;;13.00;99.90;;;;;;5064078;28;20699;-88
2022/04/08 07:50:48;;;;;;;3.00;0.73;;;13.40;99.90;;;;;;5046991;28;20906;-89
2022/04/08 07:53:15;;;;;;;0.20;0.20;;;13.30;99.90;;;;;;5039446;28;20529;-89
2022/04/08 07:55:40;;;;;;;3.20;0.73;;;13.20;99.90;;;;;;5063547;28;20256;-89
2022/04/08 07:58:06;;;;;;;3.27;1.07;;;13.20;99.90;;;;;;5061599;28;20337;-88
2022/04/08 08:00:32;;;;;;;1.13;1.10;;;12.40;99.90;;;;;;5062596;28;20209;-87
2022/04/08 08:02:58;;;;;;;0.97;0.97;;;11.90;99.90;;;;;;5077762;28;20224;-88
2022/04/08 08:05:25;;;;;;;3.40;1.43;;;12.40;99.90;;;;;;5054453;28;20709;-87
2022/04/08 08:08:01;;;;;;;5.43;1.37;;;12.80;99.90;;;;;;5063327;28;20602;-90
2022/04/08 08:10:37;;;;;;;2.47;0.73;;;13.20;99.90;;;;;;5046850;28;20209;-90
2022/04/08 08:13:03;;;;;;;0.20;0.20;;;12.50;99.90;;;;;;5046927;28;20572;-90
2022/04/08 08:15:31;;;;;;;2.07;0.30;;;11.70;99.90;;;;;;5064350;28;20252;-88
2022/04/08 08:17:57;;;;;;;1.20;0.97;;;10.80;99.90;;;;;;5046398;28;20217;-89
2022/04/08 08:20:24;;;;;;;1.50;0.70;;;10.00;99.90;;;;;;5079978;28;20185;-87
2022/04/08 08:22:51;;;;;;;3.70;1.10;;;9.60;99.90;;;;;;5079263;28;20228;-90
2022/04/08 08:25:17;;;;;;;0.40;0.20;;;10.20;99.90;;;;;;5064105;28;20588;-91
2022/04/08 08:27:46;;;;;;;0.77;0.40;;;11.30;99.90;;;;;;5047761;28;20329;-90
2022/04/08 08:30:13;;;;;;;0.30;0.30;;;10.60;99.90;;;;;;5055594;28;20281;-90
2022/04/08 08:32:40;;;;;;;5.23;0.73;;;10.30;99.90;;;;;;5081340;28;20331;-90
2022/04/08 08:35:10;;;;;;;0.37;0.37;;;10.90;99.90;;;;;;5048028;28;20189;-89
2022/04/08 08:37:36;;;;;;;0.40;0.40;;;11.80;99.90;;;;;;5047683;28;20213;-88
2022/04/08 08:40:03;;;;;;;0.70;0.50;;;10.70;99.90;;;;;;5080723;28;20236;-89
2022/04/08 08:42:29;;;;;;;3.00;0.70;;;11.90;99.90;;;;;;5063987;28;20229;-88
2022/04/08 08:44:56;;;;;;;2.03;0.70;;;12.90;99.90;;;;;;5044476;28;20205;-89
2022/04/08 08:47:22;;;;;;;0.43;0.43;;;11.70;99.90;;;;;;5068672;28;20252;-89
2022/04/08 08:49:51;;;;;;;9.87;0.97;;;10.60;99.90;;;;;;5067604;28;20260;-88
2022/04/08 08:52:21;;;;;;;0.63;0.50;;;9.90;99.90;;;;;;5042995;28;20246;-88
2022/04/08 08:54:47;;;;;;;1.73;1.10;;;9.40;99.90;;;;;;5050335;28;20251;-90
2022/04/08 08:57:17;;;;;;;0.50;0.50;;;10.30;99.90;;;;;;5068447;28;20220;-91
2022/04/08 08:59:44;;;;;;;0.77;0.77;;;10.30;99.90;;;;;;5050946;28;20185;-92
2022/04/08 09:02:15;;;;;;;0.67;0.47;;;8.60;99.90;;;;;;5060372;28;20221;-88
2022/04/08 09:04:41;;;;;;;3.10;0.63;;;7.90;99.90;;;;;;5066706;28;20675;-88
2022/04/08 09:07:24;;;;;;;0.30;0.30;;;7.70;99.90;;;;;;5067748;28;20331;-89
2022/04/08 09:09:55;;;;;;;6.37;0.63;;;8.00;99.90;;;;;;5083867;28;20225;-91
2022/04/08 09:12:27;;;;;;;0.90;0.90;;;9.50;99.90;;;;;;5050833;28;20241;-88
2022/04/08 09:15:01;;;;;;;0.13;0.13;;;11.00;99.90;;;;;;5067003;28;20807;-89
2022/04/08 09:17:28;;;;;;;0.50;0.40;;;11.80;99.90;;;;;;5051269;28;20275;-91
2022/04/08 09:19:56;;;;;;;0.80;0.80;;;10.60;99.90;;;;;;5068218;28;20221;-90
2022/04/08 09:22:28;;;;;;;0.93;0.90;;;9.90;99.90;;;;;;5050383;28;20621;-88
2022/04/08 09:24:54;;;;;;;0.37;0.37;;;9.80;99.90;;;;;;5082619;28;20347;-86
2022/04/08 09:27:21;;;;;;;0.73;0.60;;;10.10;99.90;;;;;;5049309;28;20267;-89
2022/04/08 09:29:47;;;;;;;0.87;0.70;;;9.80;99.90;;;;;;5083428;28;20196;-88
2022/04/08 09:32:14;;;;;;;3.80;0.57;;;8.60;99.90;;;;;;5050229;28;20519;-88
2022/04/08 09:34:42;;;;;;;8.23;1.23;;;8.10;99.90;;;;;;5048963;28;20221;-88
2022/04/08 09:37:12;;;;;;;2.00;0.33;;;8.00;99.90;;;;;;5056700;28;20394;-87
2022/04/08 09:40:03;;;;;;;4.47;0.70;;;8.20;99.90;;;;;;5065906;28;20221;-87
2022/04/08 09:42:44;;;;;;;3.60;0.60;;;9.10;99.90;;;;;;5049207;28;20229;-90
2022/04/08 09:45:11;;;;;;;0.63;0.63;;;10.40;99.90;;;;;;5048671;28;20249;-88
2022/04/08 09:47:37;;;;;;;1.83;1.10;;;11.60;99.90;;;;;;5065582;28;20309;-86
2022/04/08 09:50:05;;;;;;;0.30;0.30;;;12.70;99.90;;;;;;5059470;28;20623;-88
2022/04/08 09:52:32;;;;;;;0.63;0.60;;;12.30;99.90;;;;;;5066505;28;20226;-86
2022/04/08 09:54:59;;;;;;;3.93;0.20;;;12.70;99.90;;;;;;5082363;28;20229;-86
2022/04/08 09:57:32;;;;;;;1.03;0.50;;;12.50;99.90;;;;;;5046864;28;20650;-87
2022/04/08 10:00:00;;;;;;;4.37;1.30;;;11.90;99.90;;;;;;5046875;28;20209;-87
2022/04/08 10:02:28;;;;;;;6.17;1.13;;;12.50;99.90;;;;;;5048086;28;20271;-88
2022/04/08 10:04:58;;;;;;;0.40;0.40;;;13.40;99.90;;;;;;5047213;28;20248;-88
2022/04/08 10:07:24;;;;;;;4.33;1.00;;;12.90;99.90;;;;;;5066864;28;20326;-89
2022/04/08 10:09:59;;;;;;;2.80;0.60;;;11.90;99.90;;;;;;5049502;28;20689;-89
2022/04/08 10:12:51;;;;;;;0.10;0.10;;;11.40;99.90;;;;;;5055976;28;20321;-87
2022/04/08 10:15:36;;;;;;;0.53;0.53;;;11.30;99.90;;;;;;5047909;28;20243;-89
2022/04/08 10:18:04;;;;;;;0.20;0.20;;;11.90;99.90;;;;;;5048895;28;20232;-88
2022/04/08 10:20:32;;;;;;;2.10;0.53;;;12.20;99.90;;;;;;5065766;28;20198;-87
2022/04/08 10:23:12;;;;;;;3.87;0.67;;;12.90;99.90;;;;;;5066758;28;20196;-87
2022/04/08 10:25:43;;;;;;;1.57;0.50;;;12.40;99.90;;;;;;5081955;28;20225;-87
2022/04/08 10:28:11;;;;;;;0.20;0.20;;;12.40;99.90;;;;;;5064060;28;20225;-88
2022/04/08 10:31:29;;;;;;;2.57;1.43;;;12.70;99.90;;;;;;5046764;28;20304;-87
2022/04/08 10:33:56;;;;;;;2.80;0.57;;;13.20;99.90;;;;;;5061194;28;20651;-86
2022/04/08 10:36:43;;;;;;;0.53;0.40;;;13.60;99.90;;;;;;5066123;28;20217;-86
2022/04/08 10:39:13;;;;;;;1.53;0.60;;;14.20;99.90;;;;;;5047658;28;20227;-85
2022/04/08 10:41:53;;;;;;;1.20;1.10;;;15.10;99.90;;;;;;5046517;28;20203;-86
2022/04/08 10:44:37;;;;;;;2.53;0.53;;;13.60;99.90;;;;;;5056420;28;20657;-89
2022/04/08 10:47:16;;;;;;;0.30;0.30;;;12.10;99.90;;;;;;5044176;28;20240;-86
2022/04/08 10:49:53;;;;;;;2.33;1.20;;;10.70;99.90;;;;;;5046277;28;20240;-88
2022/04/08 10:52:30;;;;;;;0.30;0.27;;;10.20;99.90;;;;;;5029106;28;20220;-87
2022/04/08 10:55:07;;;;;;;0.70;0.50;;;10.50;99.90;;;;;;5046346;28;20208;-86
2022/04/08 10:57:35;;;;;;;1.10;0.57;;;11.50;99.90;;;;;;5055907;28;20328;-87
2022/04/08 11:00:05;;;;;;;6.80;0.63;;;11.40;99.90;;;;;;5064444;28;20632;-87
2022/04/08 11:02:39;;;;;;;0.47;0.47;;;11.20;99.90;;;;;;5063656;28;20316;-87
2022/04/08 11:05:09;;;;;;;0.47;0.47;;;11.90;99.90;;;;;;5047318;28;20233;-86
2022/04/08 11:07:42;;;;;;;0.90;0.70;;;11.10;99.90;;;;;;5065263;28;20271;-86
2022/04/08 11:10:13;;;;;;;0.53;0.53;;;10.80;99.90;;;;;;5046738;28;20217;-86
2022/04/08 11:12:53;;;;;;;2.53;0.40;;;10.60;99.90;;;;;;5064279;28;20255;-87
2022/04/08 11:15:23;;;;;;;2.47;0.40;;;10.80;99.90;;;;;;5046969;28;20216;-87
2022/04/08 11:17:51;;;;;;;0.20;0.20;;;10.70;99.90;;;;;;5047211;28;20225;-87
2022/04/08 11:20:19;;;;;;;0.77;0.50;;;9.80;99.90;;;;;;5065783;28;20262;-87
2022/04/08 11:22:52;;;;;;;0.93;0.60;;;8.40;99.90;;;;;;5064266;28;20221;-86
2022/04/08 11:25:26;;;;;;;0.60;0.20;;;8.10;99.90;;;;;;5079609;28;20213;-87
2022/04/08 11:28:02;;;;;;;2.63;0.90;;;8.10;99.90;;;;;;5046458;28;20225;-86
2022/04/08 11:30:29;;;;;;;0.27;0.20;;;8.20;99.90;;;;;;5063313;28;20220;-86
2022/04/08 11:32:55;;;;;;;0.20;0.20;;;8.40;99.90;;;;;;5063834;28;20224;-87
2022/04/08 11:35:21;;;;;;;1.07;0.33;;;8.20;99.90;;;;;;5081370;28;20189;-87
2022/04/08 11:37:47;;;;;;;0.60;0.60;;;8.00;99.90;;;;;;5063630;28;20562;-86
2022/04/08 11:40:17;;;;;;;0.30;0.30;;;8.00;99.90;;;;;;5063668;28;20639;-88
2022/04/08 11:42:45;;;;;;;0.40;0.40;;;8.50;99.90;;;;;;5081303;28;20216;-88
2022/04/08 11:45:11;;;;;;;0.30;0.30;;;9.40;99.90;;;;;;5064457;28;20650;-88
2022/04/08 11:47:40;;;;;;;0.50;0.50;;;9.70;99.90;;;;;;5064077;28;20237;-86
2022/04/08 11:50:08;;;;;;;0.20;0.20;;;10.20;99.90;;;;;;5047539;28;20204;-87
2022/04/08 11:52:35;;;;;;;0.20;0.20;;;10.40;99.90;;;;;;5065727;28;20295;-88
2022/04/08 11:55:09;;;;;;;0.43;0.40;;;10.20;99.90;;;;;;5079905;28;20257;-87
2022/04/08 11:57:37;;;;;;;0.30;0.30;;;9.80;99.90;;;;;;5046203;28;20224;-91
2022/04/08 12:00:07;;;;;;;0.30;0.30;;;10.00;99.90;;;;;;5044643;28;20613;-88
2022/04/08 12:02:35;;;;;;;0.30;0.30;;;10.20;99.90;;;;;;5044586;28;20231;-89
2022/04/08 12:05:02;;;;;;;7.30;0.80;;;10.70;99.90;;;;;;5035337;28;21075;-85
2022/04/08 12:07:31;;;;;;;0.50;0.50;;;11.10;99.90;;;;;;5031312;28;20233;-87
2022/04/08 12:10:01;;;;;;;0.50;0.50;;;10.40;99.90;;;;;;5016951;28;20222;-87
2022/04/08 12:12:30;;;;;;;0.30;0.30;;;10.30;99.90;;;;;;5031509;28;20720;-87
2022/04/08 12:15:08;;;;;;;0.47;0.47;;;10.20;99.90;;;;;;5032738;28;20231;-86
2022/04/08 12:17:41;;;;;;;3.73;0.97;;;10.20;99.90;;;;;;5049597;28;20179;-86
2022/04/08 12:20:19;;;;;;;0.50;0.50;;;10.80;99.90;;;;;;5015980;28;20187;-86
2022/04/08 12:22:49;;;;;;;4.00;0.67;;;11.00;99.90;;;;;;5034608;28;20220;-85
2022/04/08 12:25:18;;;;;;;0.30;0.30;;;11.00;99.90;;;;;;5019474;28;20210;-82
2022/04/08 12:27:51;;;;;;;2.47;1.20;;;10.50;99.90;;;;;;5033943;28;20233;-90
2022/04/08 12:30:17;;;;;;;0.63;0.53;;;10.20;99.90;;;;;;5038920;28;20744;-90
2022/04/08 12:32:43;;;;;;;0.37;0.37;;;10.00;99.90;;;;;;5020387;28;20726;-89
2022/04/08 12:35:11;;;;;;;2.20;0.30;;;9.90;99.90;;;;;;5035747;28;20186;-89
2022/04/08 12:37:37;;;;;;;20.43;0.77;;;9.80;99.90;;;;;;5036265;28;20279;-88
2022/04/08 12:40:05;;;;;;;1.50;0.80;;;10.00;99.90;;;;;;5021478;28;20211;-88
2022/04/08 12:42:35;;;;;;;1.03;0.33;;;10.10;99.90;;;;;;5041488;28;20226;-89
2022/04/08 12:45:01;;;;;;;0.63;0.50;;;10.70;99.90;;;;;;5043590;28;20218;-89
2022/04/08 12:47:27;;;;;;;1.80;0.30;;;10.70;99.90;;;;;;5022219;28;20547;-90
2022/04/08 12:49:52;;;;;;;0.40;0.40;;;10.70;99.90;;;;;;5020468;28;20694;-89
2022/04/08 12:52:18;;;;;;;0.73;0.73;;;10.70;99.90;;;;;;5021172;28;21003;-91
2022/04/08 12:54:44;;;;;;;0.73;0.73;;;10.70;99.90;;;;;;5019973;28;20686;-87
2022/04/08 12:57:10;;;;;;;0.53;0.53;;;10.40;99.90;;;;;;5036166;28;20260;-88